Time;durP1;ratioP1;P1;durP2;ratioP2;P2;SDS_P1;SDS_P2;PMS_P1;PMS_P2;Temp;Humidity;BMP_temperature;BMP_pressure;BME280_temperature;BME280_humidity;BME280_pressure;Samples;Min_cycle;Max_cycle;Signal;HPM_P1;HPM_P2
2024/04/06 00:00:39;;;;;;;4.80;2.43;;;12.60;99.90;;;;;;5012126;28;20492;-63
2024/04/06 00:03:05;;;;;;;7.27;2.37;;;12.60;99.90;;;;;;5007896;28;20959;-64
2024/04/06 00:05:32;;;;;;;6.53;2.57;;;12.60;99.90;;;;;;5011355;28;20494;-64
2024/04/06 00:07:58;;;;;;;5.17;2.17;;;12.60;99.90;;;;;;5011229;28;20529;-63
2024/04/06 00:10:26;;;;;;;4.10;2.40;;;12.60;99.90;;;;;;5015369;28;20487;-63
2024/04/06 00:12:52;;;;;;;5.50;2.07;;;12.60;99.90;;;;;;5016730;28;21081;-63
2024/04/06 00:15:19;;;;;;;3.33;2.03;;;12.50;99.90;;;;;;5030300;28;20518;-64
2024/04/06 00:17:45;;;;;;;7.40;2.37;;;12.50;99.90;;;;;;5014108;28;20464;-64
2024/04/06 00:20:12;;;;;;;5.63;2.20;;;12.50;99.90;;;;;;5002133;28;20537;-66
2024/04/06 00:22:38;;;;;;;4.17;2.40;;;12.50;99.90;;;;;;5011217;28;20476;-66
2024/04/06 00:25:06;;;;;;;5.03;2.20;;;12.40;99.90;;;;;;5015866;28;20992;-66
2024/04/06 00:27:33;;;;;;;6.03;2.70;;;12.40;99.90;;;;;;5011779;28;21291;-63
2024/04/06 00:30:00;;;;;;;4.77;2.00;;;12.40;99.90;;;;;;5008556;28;20494;-63
2024/04/06 00:32:26;;;;;;;7.07;2.40;;;12.40;99.90;;;;;;5007140;28;20506;-64
2024/04/06 00:34:54;;;;;;;5.83;2.70;;;12.40;99.90;;;;;;5014794;28;21022;-63
2024/04/06 00:37:20;;;;;;;7.80;2.33;;;12.40;99.90;;;;;;5013707;28;20479;-63
2024/04/06 00:39:47;;;;;;;4.50;2.90;;;12.40;99.90;;;;;;5009770;28;20530;-63
2024/04/06 00:42:13;;;;;;;4.70;2.30;;;12.40;99.90;;;;;;5019401;28;20467;-63
2024/04/06 00:44:41;;;;;;;3.87;1.87;;;12.40;99.90;;;;;;5005704;28;20487;-65
2024/04/06 00:47:07;;;;;;;6.07;2.40;;;12.30;99.90;;;;;;5010337;28;20467;-65
2024/04/06 00:49:34;;;;;;;4.30;2.20;;;12.30;99.90;;;;;;5014052;28;20480;-65
2024/04/06 00:52:00;;;;;;;5.43;2.67;;;12.30;99.90;;;;;;5011746;28;20598;-65
2024/04/06 00:54:28;;;;;;;5.80;2.63;;;12.30;99.90;;;;;;5007213;28;20914;-65
2024/04/06 00:56:54;;;;;;;6.57;2.63;;;12.30;99.90;;;;;;5011301;28;20479;-65
2024/04/06 00:59:21;;;;;;;4.00;2.70;;;12.30;99.90;;;;;;5002039;28;20482;-65
2024/04/06 01:01:48;;;;;;;5.57;2.60;;;12.30;99.90;;;;;;5006061;28;20934;-65
2024/04/06 01:04:16;;;;;;;4.70;2.67;;;12.30;99.90;;;;;;5004494;28;20496;-65
2024/04/06 01:06:42;;;;;;;2.87;2.20;;;12.30;99.90;;;;;;5006054;28;20988;-65
2024/04/06 01:09:09;;;;;;;6.17;2.70;;;12.30;99.90;;;;;;5013523;28;20463;-65
2024/04/06 01:11:36;;;;;;;5.93;2.50;;;12.20;99.90;;;;;;5028869;28;20995;-65
2024/04/06 01:14:03;;;;;;;4.53;2.47;;;12.20;99.90;;;;;;5030943;28;20506;-65
2024/04/06 01:16:30;;;;;;;5.57;3.00;;;12.20;99.90;;;;;;5027445;28;20467;-66
2024/04/06 01:18:58;;;;;;;8.50;3.43;;;12.20;99.90;;;;;;5023591;28;20464;-65
2024/04/06 01:21:26;;;;;;;4.70;2.67;;;12.20;99.90;;;;;;5029121;28;20479;-65
2024/04/06 01:23:54;;;;;;;8.57;2.93;;;12.20;99.90;;;;;;5034511;28;20499;-65
2024/04/06 01:26:22;;;;;;;3.10;2.50;;;12.20;99.90;;;;;;5037822;28;20877;-65
2024/04/06 01:28:49;;;;;;;7.20;3.10;;;12.20;99.90;;;;;;5030278;28;20964;-65
2024/04/06 01:31:16;;;;;;;4.93;3.00;;;12.20;99.90;;;;;;5031383;28;20483;-65
2024/04/06 01:33:49;;;;;;;4.00;2.83;;;12.20;99.90;;;;;;5035192;28;20494;-65
2024/04/06 01:36:15;;;;;;;4.97;2.67;;;12.20;99.90;;;;;;5032508;28;20481;-65
2024/04/06 01:38:42;;;;;;;5.87;2.70;;;12.20;99.90;;;;;;5028289;28;20470;-65
2024/04/06 01:41:08;;;;;;;8.63;3.13;;;12.20;99.90;;;;;;5032552;28;20995;-65
2024/04/06 01:43:37;;;;;;;10.30;3.23;;;12.20;99.90;;;;;;5031200;28;20486;-65
2024/04/06 01:46:03;;;;;;;5.40;2.73;;;12.20;99.90;;;;;;5030871;28;20466;-65
2024/04/06 01:48:30;;;;;;;12.80;3.27;;;12.20;99.90;;;;;;5026682;28;20466;-65
2024/04/06 01:50:56;;;;;;;5.70;3.20;;;12.20;99.90;;;;;;5019064;28;20855;-65
2024/04/06 01:53:23;;;;;;;5.23;3.00;;;12.20;99.90;;;;;;5015886;28;20463;-65
2024/04/06 01:55:49;;;;;;;4.70;2.90;;;12.20;99.90;;;;;;5008298;28;20468;-65
2024/04/06 01:58:16;;;;;;;8.30;3.17;;;12.20;99.90;;;;;;5002777;28;20471;-65
2024/04/06 02:00:43;;;;;;;6.43;3.00;;;12.20;99.90;;;;;;5015916;28;20495;-65
2024/04/06 02:03:10;;;;;;;6.27;3.43;;;12.10;99.90;;;;;;5008459;28;20537;-65
2024/04/06 02:05:36;;;;;;;5.57;2.50;;;12.10;99.90;;;;;;5009763;28;20494;-65
2024/04/06 02:08:04;;;;;;;5.33;2.97;;;12.10;99.90;;;;;;5015009;28;20529;-65
2024/04/06 02:10:30;;;;;;;6.30;2.90;;;12.10;99.90;;;;;;5014394;28;20537;-65
2024/04/06 02:12:57;;;;;;;7.07;3.00;;;12.10;99.90;;;;;;5010000;28;20479;-65
2024/04/06 02:15:23;;;;;;;6.17;3.13;;;12.10;99.90;;;;;;5002306;28;20507;-65
2024/04/06 02:17:52;;;;;;;6.70;2.90;;;12.10;99.90;;;;;;5008323;28;20481;-65
2024/04/06 02:20:18;;;;;;;6.33;3.23;;;12.10;99.90;;;;;;5012885;28;20479;-65
2024/04/06 02:22:45;;;;;;;8.30;3.10;;;12.10;99.90;;;;;;5018116;28;20493;-65
2024/04/06 02:25:11;;;;;;;3.67;2.73;;;12.10;99.90;;;;;;5017606;28;20491;-65
2024/04/06 02:27:38;;;;;;;5.20;3.00;;;12.10;99.90;;;;;;5015808;28;20547;-65
2024/04/06 02:30:06;;;;;;;6.73;3.27;;;12.10;99.90;;;;;;5011541;28;20495;-65
2024/04/06 02:32:33;;;;;;;4.23;3.00;;;12.10;99.90;;;;;;5016857;28;20907;-65
2024/04/06 02:35:01;;;;;;;6.90;3.00;;;12.10;99.90;;;;;;5011048;28;20488;-65
2024/04/06 02:37:28;;;;;;;9.77;3.60;;;12.10;99.90;;;;;;5011510;28;20478;-65
2024/04/06 02:39:54;;;;;;;6.63;3.77;;;12.10;99.90;;;;;;5014860;28;20479;-65
2024/04/06 02:42:30;;;;;;;7.57;4.60;;;12.10;99.90;;;;;;5036522;28;20985;-65
2024/04/06 02:44:56;;;;;;;3.70;3.03;;;12.10;99.90;;;;;;5031396;28;20516;-65
2024/04/06 02:47:23;;;;;;;6.17;3.03;;;12.10;99.90;;;;;;5032953;28;20883;-65
2024/04/06 02:49:49;;;;;;;6.90;3.40;;;12.10;99.90;;;;;;5037240;28;20490;-65
2024/04/06 02:52:17;;;;;;;4.10;2.93;;;12.10;99.90;;;;;;5027783;28;20974;-65
2024/04/06 02:54:43;;;;;;;6.30;3.90;;;12.10;99.90;;;;;;5039426;28;20497;-65
2024/04/06 02:57:10;;;;;;;5.13;3.23;;;12.00;99.90;;;;;;5032494;28;20463;-65
2024/04/06 02:59:36;;;;;;;4.60;2.77;;;12.10;99.90;;;;;;5034109;28;20474;-65
2024/04/06 03:02:04;;;;;;;8.57;3.90;;;12.10;99.90;;;;;;5014675;28;20525;-65
2024/04/06 03:04:30;;;;;;;5.53;3.57;;;12.00;99.90;;;;;;5009338;28;22064;-65
2024/04/06 03:06:57;;;;;;;5.70;3.43;;;12.10;99.90;;;;;;5007842;28;20490;-65
2024/04/06 03:09:25;;;;;;;6.23;3.50;;;12.10;99.90;;;;;;5011242;28;20478;-65
2024/04/06 03:11:52;;;;;;;4.30;3.10;;;12.10;99.90;;;;;;5013944;28;23331;-65
2024/04/06 03:14:18;;;;;;;5.53;3.50;;;12.00;99.90;;;;;;5016719;28;20495;-65
2024/04/06 03:16:45;;;;;;;7.13;4.13;;;12.00;99.90;;;;;;5010650;28;21311;-65
2024/04/06 03:19:13;;;;;;;6.77;3.53;;;12.00;99.90;;;;;;5021800;28;20887;-65
2024/04/06 03:21:40;;;;;;;4.63;3.67;;;12.00;99.90;;;;;;5019404;28;20992;-65
2024/04/06 03:24:06;;;;;;;5.23;3.50;;;12.00;99.90;;;;;;5014472;28;20483;-65
2024/04/06 03:26:36;;;;;;;7.67;3.90;;;12.00;99.90;;;;;;5019513;28;20602;-65
2024/04/06 03:29:02;;;;;;;7.00;3.40;;;12.00;99.90;;;;;;5020561;28;20471;-65
2024/04/06 03:31:31;;;;;;;6.57;4.07;;;12.00;99.90;;;;;;5018886;28;20487;-65
2024/04/06 03:33:57;;;;;;;9.03;4.47;;;11.90;99.90;;;;;;5018788;28;20487;-65
2024/04/06 03:36:24;;;;;;;4.40;3.60;;;11.90;99.90;;;;;;5022840;28;20479;-65
2024/04/06 03:38:51;;;;;;;5.70;3.60;;;11.90;99.90;;;;;;5020574;28;20478;-65
2024/04/06 03:41:18;;;;;;;7.00;3.60;;;11.90;99.90;;;;;;5014731;28;20490;-65
2024/04/06 03:43:45;;;;;;;6.30;3.97;;;11.90;99.90;;;;;;5022730;28;20487;-65
2024/04/06 03:46:12;;;;;;;5.90;3.93;;;11.90;99.90;;;;;;5011878;28;20470;-65
2024/04/06 03:48:38;;;;;;;7.20;4.50;;;11.90;99.90;;;;;;5017200;28;20459;-65
2024/04/06 03:51:06;;;;;;;5.10;4.10;;;11.90;99.90;;;;;;5014212;28;20479;-65
2024/04/06 03:53:33;;;;;;;6.60;4.20;;;11.90;99.90;;;;;;5023477;28;20471;-65
2024/04/06 03:56:00;;;;;;;6.97;4.00;;;11.90;99.90;;;;;;5020076;28;20475;-65
2024/04/06 03:58:27;;;;;;;7.37;4.30;;;11.90;99.90;;;;;;5023365;28;20464;-65
2024/04/06 04:00:56;;;;;;;5.10;4.17;;;11.90;99.90;;;;;;5018860;28;21005;-65
2024/04/06 04:03:22;;;;;;;6.00;4.17;;;11.90;99.90;;;;;;5013755;28;20472;-65
2024/04/06 04:05:49;;;;;;;5.07;4.07;;;11.80;99.90;;;;;;5019162;28;20476;-65
2024/04/06 04:08:15;;;;;;;7.00;4.00;;;11.80;99.90;;;;;;5017607;28;20476;-65
2024/04/06 04:10:42;;;;;;;8.43;4.80;;;11.90;99.90;;;;;;5020167;28;20482;-65
2024/04/06 04:13:09;;;;;;;5.13;3.97;;;11.90;99.90;;;;;;5020728;28;20487;-65
2024/04/06 04:15:37;;;;;;;5.00;4.23;;;11.90;99.90;;;;;;5018974;28;20492;-65
2024/04/06 04:18:05;;;;;;;7.80;5.20;;;11.80;99.90;;;;;;5014122;28;20466;-65
2024/04/06 04:20:33;;;;;;;10.17;4.20;;;11.90;99.90;;;;;;5022614;28;20502;-65
2024/04/06 04:23:00;;;;;;;6.43;4.40;;;11.90;99.90;;;;;;5023296;28;20464;-65
2024/04/06 04:25:28;;;;;;;6.53;4.47;;;11.80;99.90;;;;;;5019105;28;20502;-65
2024/04/06 04:27:54;;;;;;;5.70;4.90;;;11.80;99.90;;;;;;5017161;28;20475;-66
2024/04/06 04:30:21;;;;;;;7.63;4.13;;;11.80;99.90;;;;;;5015180;28;20483;-64
2024/04/06 04:32:48;;;;;;;5.53;4.30;;;11.80;99.90;;;;;;5015166;28;20483;-65
2024/04/06 04:35:16;;;;;;;7.00;3.93;;;11.80;99.90;;;;;;5010348;28;21302;-64
2024/04/06 04:37:42;;;;;;;5.60;3.67;;;11.80;99.90;;;;;;5008346;28;20980;-66
2024/04/06 04:40:10;;;;;;;5.40;4.10;;;11.70;99.90;;;;;;5008284;28;21077;-64
2024/04/06 04:42:37;;;;;;;6.40;4.40;;;11.70;99.90;;;;;;5011242;28;20472;-65
2024/04/06 04:45:09;;;;;;;9.30;4.60;;;11.80;99.90;;;;;;5009447;28;22153;-64
2024/04/06 04:47:35;;;;;;;7.80;4.30;;;11.70;99.90;;;;;;5006120;28;20794;-64
2024/04/06 04:50:03;;;;;;;6.83;4.00;;;11.80;99.90;;;;;;5011674;28;20498;-64
2024/04/06 04:52:31;;;;;;;4.40;3.60;;;11.80;99.90;;;;;;5012164;28;20492;-64
2024/04/06 04:54:59;;;;;;;5.43;3.70;;;11.80;99.90;;;;;;5025302;28;20500;-64
2024/04/06 04:57:25;;;;;;;8.23;3.90;;;11.80;99.90;;;;;;5012396;28;20824;-64
2024/04/06 04:59:52;;;;;;;7.07;3.80;;;11.70;99.90;;;;;;5016708;28;20482;-65
2024/04/06 05:02:18;;;;;;;9.23;5.03;;;11.80;99.90;;;;;;5017999;28;21055;-65
2024/04/06 05:04:45;;;;;;;4.07;3.67;;;11.80;99.90;;;;;;5008650;28;20495;-65
2024/04/06 05:07:12;;;;;;;4.40;3.53;;;11.80;99.90;;;;;;5012640;28;20494;-65
2024/04/06 05:09:40;;;;;;;3.60;3.30;;;11.70;99.90;;;;;;5025867;28;20475;-65
2024/04/06 05:12:07;;;;;;;6.40;3.63;;;11.70;99.90;;;;;;5016348;28;20491;-65
2024/04/06 05:14:34;;;;;;;6.30;4.00;;;11.70;99.90;;;;;;5006374;28;20495;-65
2024/04/06 05:17:00;;;;;;;4.47;3.43;;;11.70;99.90;;;;;;5003384;28;20479;-65
2024/04/06 05:19:27;;;;;;;7.17;4.10;;;11.70;99.90;;;;;;4998913;28;20468;-65
2024/04/06 05:21:53;;;;;;;6.00;4.27;;;11.70;99.90;;;;;;5009504;28;20985;-65
2024/04/06 05:24:20;;;;;;;7.17;4.37;;;11.70;99.90;;;;;;5005603;28;20825;-64
2024/04/06 05:26:47;;;;;;;6.87;5.03;;;11.70;99.90;;;;;;5009057;28;20495;-64
2024/04/06 05:29:14;;;;;;;5.00;4.07;;;11.70;99.90;;;;;;5004198;28;21357;-66
2024/04/06 05:31:41;;;;;;;6.00;4.20;;;11.80;99.90;;;;;;5006471;28;20993;-64
2024/04/06 05:34:08;;;;;;;6.23;3.93;;;11.80;99.90;;;;;;5010393;28;20498;-64
2024/04/06 05:36:34;;;;;;;5.90;4.50;;;11.80;99.90;;;;;;5008316;28;20464;-64
2024/04/06 05:39:01;;;;;;;7.07;4.40;;;11.90;99.90;;;;;;5000246;28;20475;-64
2024/04/06 05:41:27;;;;;;;6.07;4.17;;;11.90;99.90;;;;;;5011736;28;20479;-64
2024/04/06 05:43:56;;;;;;;5.70;4.20;;;11.90;99.90;;;;;;5010924;28;20507;-64
2024/04/06 05:46:22;;;;;;;7.13;4.47;;;12.00;99.90;;;;;;5004832;28;21005;-64
2024/04/06 05:48:49;;;;;;;6.07;4.17;;;11.90;99.90;;;;;;5009264;28;20471;-64
2024/04/06 05:51:15;;;;;;;6.13;4.07;;;12.00;99.90;;;;;;5009266;28;20494;-64
2024/04/06 05:53:42;;;;;;;8.43;3.80;;;12.00;99.90;;;;;;5017111;28;21000;-64
2024/04/06 05:56:08;;;;;;;7.30;3.90;;;12.00;99.90;;;;;;5002357;28;20471;-64
2024/04/06 05:58:35;;;;;;;7.47;4.90;;;12.00;99.90;;;;;;5006626;28;20471;-64
2024/04/06 06:01:03;;;;;;;6.70;4.43;;;12.00;99.90;;;;;;5011052;28;20491;-64
2024/04/06 06:03:30;;;;;;;8.77;4.40;;;12.00;99.90;;;;;;5002886;28;20486;-65
2024/04/06 06:05:57;;;;;;;7.03;4.13;;;12.10;99.90;;;;;;5007492;28;20501;-65
2024/04/06 06:08:24;;;;;;;6.97;4.33;;;12.10;99.90;;;;;;5015169;28;20831;-65
2024/04/06 06:10:50;;;;;;;6.90;4.20;;;12.10;99.90;;;;;;5011250;28;20492;-65
2024/04/06 06:13:17;;;;;;;8.80;4.47;;;12.20;99.90;;;;;;5018632;28;20557;-65
2024/04/06 06:15:43;;;;;;;4.90;3.40;;;12.20;99.90;;;;;;5011164;28;20468;-65
2024/04/06 06:18:12;;;;;;;5.60;4.20;;;12.20;99.90;;;;;;5014106;28;20463;-64
2024/04/06 06:20:38;;;;;;;4.07;3.67;;;12.30;99.90;;;;;;5014457;28;20483;-64
2024/04/06 06:23:06;;;;;;;7.13;4.07;;;12.30;99.90;;;;;;5007426;28;21082;-64
2024/04/06 06:25:32;;;;;;;5.60;4.60;;;12.30;99.90;;;;;;5005682;28;24242;-65
2024/04/06 06:28:00;;;;;;;7.53;4.00;;;12.30;99.90;;;;;;5008845;28;20812;-65
2024/04/06 06:30:26;;;;;;;7.60;4.57;;;12.30;99.90;;;;;;4986024;28;20495;-64
2024/04/06 06:32:53;;;;;;;6.90;4.27;;;12.40;99.90;;;;;;4993124;28;20518;-64
2024/04/06 06:35:21;;;;;;;6.80;4.50;;;12.40;99.90;;;;;;5000067;28;20709;-65
2024/04/06 06:37:48;;;;;;;5.37;4.40;;;12.40;99.90;;;;;;5016576;28;20918;-64
2024/04/06 06:40:14;;;;;;;9.80;4.93;;;12.60;99.90;;;;;;4996152;28;20496;-64
2024/04/06 06:42:41;;;;;;;5.83;4.60;;;12.60;99.90;;;;;;4997041;28;20464;-64
2024/04/06 06:45:08;;;;;;;4.90;4.40;;;12.70;99.90;;;;;;4996024;28;21046;-64
2024/04/06 06:47:35;;;;;;;5.70;4.37;;;12.70;99.90;;;;;;5002926;28;21063;-64
2024/04/06 06:50:02;;;;;;;8.83;4.40;;;12.70;99.90;;;;;;5003241;28;21020;-65
2024/04/06 06:52:31;;;;;;;6.70;4.30;;;12.70;99.90;;;;;;5007385;28;20483;-64
2024/04/06 06:54:57;;;;;;;9.50;4.40;;;12.80;99.90;;;;;;5011875;28;21026;-66
2024/04/06 06:57:24;;;;;;;6.63;4.37;;;12.80;99.90;;;;;;5010412;28;20486;-66
2024/04/06 06:59:50;;;;;;;6.60;4.40;;;12.90;99.90;;;;;;5007081;28;20502;-65
2024/04/06 07:02:17;;;;;;;6.30;4.30;;;13.00;99.90;;;;;;5011579;28;20541;-65
2024/04/06 07:04:44;;;;;;;7.37;4.83;;;13.10;99.90;;;;;;5004429;28;21007;-66
2024/04/06 07:07:11;;;;;;;6.07;3.97;;;13.10;99.90;;;;;;5005194;28;20475;-66
2024/04/06 07:09:39;;;;;;;8.93;4.60;;;13.20;99.90;;;;;;5005587;28;20468;-66
2024/04/06 07:12:07;;;;;;;5.00;3.93;;;13.30;99.90;;;;;;5012853;28;20974;-66
2024/04/06 07:14:33;;;;;;;7.90;4.43;;;13.30;99.90;;;;;;5010976;28;20532;-65
2024/04/06 07:17:01;;;;;;;9.67;4.60;;;13.40;99.90;;;;;;5006989;28;20956;-66
2024/04/06 07:19:27;;;;;;;8.27;4.23;;;13.50;99.90;;;;;;5002652;28;20471;-65
2024/04/06 07:21:54;;;;;;;7.83;4.90;;;13.60;99.90;;;;;;5013921;28;22100;-66
2024/04/06 07:24:21;;;;;;;6.73;4.43;;;13.60;99.90;;;;;;5007435;28;20492;-65
2024/04/06 07:26:49;;;;;;;7.00;4.70;;;13.70;99.90;;;;;;5009530;28;20464;-66
2024/04/06 07:29:15;;;;;;;5.90;4.33;;;13.70;99.90;;;;;;5009940;28;20761;-65
2024/04/06 07:31:42;;;;;;;4.63;3.80;;;13.80;99.90;;;;;;5007741;28;20499;-65
2024/04/06 07:34:08;;;;;;;5.87;4.37;;;13.90;99.90;;;;;;5010280;28;20491;-66
2024/04/06 07:36:35;;;;;;;8.07;4.60;;;14.00;99.90;;;;;;5005495;28;20541;-65
2024/04/06 07:39:01;;;;;;;5.93;5.00;;;14.00;99.90;;;;;;5016983;28;20473;-65
2024/04/06 07:41:29;;;;;;;10.37;5.30;;;14.10;99.90;;;;;;5011427;28;20484;-66
2024/04/06 07:43:56;;;;;;;6.23;5.60;;;14.20;99.90;;;;;;5010242;28;20598;-65
2024/04/06 07:46:23;;;;;;;9.10;6.40;;;14.30;99.90;;;;;;5010434;28;20729;-65
2024/04/06 07:48:49;;;;;;;8.60;6.73;;;14.40;99.90;;;;;;5008834;28;20865;-66
2024/04/06 07:51:16;;;;;;;8.90;6.80;;;14.50;99.90;;;;;;5010213;28;20914;-65
2024/04/06 07:53:42;;;;;;;8.63;7.50;;;14.60;99.90;;;;;;5002309;28;20496;-66
2024/04/06 07:56:09;;;;;;;7.10;6.30;;;14.80;99.90;;;;;;5008546;28;20537;-65
2024/04/06 07:58:35;;;;;;;8.17;7.37;;;14.90;99.90;;;;;;5016239;28;20468;-66
2024/04/06 08:01:04;;;;;;;9.87;7.50;;;14.90;99.90;;;;;;5007092;28;20553;-66
2024/04/06 08:03:30;;;;;;;8.67;7.90;;;15.00;99.90;;;;;;5012309;28;21041;-66
2024/04/06 08:05:59;;;;;;;8.67;7.80;;;15.10;99.90;;;;;;5011153;28;21048;-66
2024/04/06 08:08:26;;;;;;;7.63;6.50;;;15.10;99.90;;;;;;5013818;28;20468;-66
2024/04/06 08:10:53;;;;;;;6.90;6.23;;;15.20;99.90;;;;;;5013940;28;20865;-66
2024/04/06 08:13:19;;;;;;;9.43;6.90;;;15.30;99.90;;;;;;5011787;28;20548;-65
2024/04/06 08:15:46;;;;;;;6.90;6.30;;;15.30;99.90;;;;;;5007811;28;20463;-66
2024/04/06 08:18:13;;;;;;;8.93;6.63;;;15.40;99.90;;;;;;5014071;28;20463;-66
2024/04/06 08:20:41;;;;;;;8.43;6.70;;;15.50;99.90;;;;;;5007014;28;20617;-66
2024/04/06 08:23:07;;;;;;;6.60;6.00;;;15.50;99.90;;;;;;5007048;28;20467;-66
2024/04/06 08:25:34;;;;;;;6.53;5.50;;;15.50;99.90;;;;;;5016575;28;20849;-66
2024/04/06 08:28:00;;;;;;;7.50;6.80;;;15.50;99.90;;;;;;5013676;28;20476;-66
2024/04/06 08:30:27;;;;;;;6.60;6.00;;;15.60;99.90;;;;;;5012842;28;20480;-65
2024/04/06 08:32:57;;;;;;;6.83;6.13;;;15.60;99.90;;;;;;5020721;28;20569;-66
2024/04/06 08:35:25;;;;;;;6.50;5.90;;;15.70;99.90;;;;;;5012332;28;20496;-67
2024/04/06 08:37:51;;;;;;;7.00;6.13;;;15.80;99.90;;;;;;5011545;28;20475;-66
2024/04/06 08:40:18;;;;;;;5.83;5.33;;;15.90;99.90;;;;;;5007965;28;20495;-67
2024/04/06 08:42:45;;;;;;;6.90;5.87;;;15.90;99.90;;;;;;5020547;28;20467;-66
2024/04/06 08:45:13;;;;;;;6.80;5.03;;;15.90;99.90;;;;;;5019245;28;20613;-66
2024/04/06 08:47:40;;;;;;;6.67;5.10;;;15.90;99.90;;;;;;4991520;28;20475;-65
2024/04/06 08:50:08;;;;;;;7.20;6.50;;;16.00;99.90;;;;;;5016570;28;20524;-65
2024/04/06 08:52:36;;;;;;;6.43;5.90;;;16.10;99.90;;;;;;5018534;28;20487;-66
2024/04/06 08:55:04;;;;;;;11.53;6.53;;;16.20;99.90;;;;;;5023426;28;20564;-68
2024/04/06 08:57:33;;;;;;;7.73;6.97;;;16.20;99.90;;;;;;5022022;28;20557;-68
2024/04/06 09:00:03;;;;;;;9.00;6.87;;;16.30;99.90;;;;;;5018914;28;20471;-67
2024/04/06 09:02:30;;;;;;;7.23;6.53;;;16.30;99.90;;;;;;5005759;28;20467;-68
2024/04/06 09:04:57;;;;;;;7.70;6.97;;;16.40;99.90;;;;;;4992071;28;20488;-68
2024/04/06 09:07:24;;;;;;;7.87;7.13;;;16.50;99.90;;;;;;5006409;28;21603;-68
2024/04/06 09:09:54;;;;;;;7.03;6.43;;;16.60;99.90;;;;;;5005278;28;20479;-69
2024/04/06 09:12:20;;;;;;;7.43;6.73;;;16.70;99.90;;;;;;5000398;28;20483;-69
2024/04/06 09:14:47;;;;;;;7.30;6.70;;;16.70;99.90;;;;;;5002947;28;20492;-68
2024/04/06 09:17:14;;;;;;;7.10;6.50;;;16.70;99.90;;;;;;5003487;28;20471;-63
2024/04/06 09:19:42;;;;;;;7.30;6.70;;;16.80;99.90;;;;;;4998222;28;20502;-63
2024/04/06 09:22:08;;;;;;;9.13;6.80;;;17.00;99.90;;;;;;5005803;28;20456;-66
2024/04/06 09:24:36;;;;;;;7.33;6.63;;;17.00;99.90;;;;;;5005636;28;20484;-68
2024/04/06 09:27:11;;;;;;;8.90;7.23;;;17.10;99.90;;;;;;5000967;28;20490;-68
2024/04/06 09:29:39;;;;;;;8.57;6.80;;;17.20;99.90;;;;;;5002682;28;20852;-70
2024/04/06 09:32:10;;;;;;;7.87;6.80;;;17.20;99.90;;;;;;5007556;28;20474;-73
2024/04/06 09:34:43;;;;;;;7.50;6.00;;;17.20;99.90;;;;;;5000729;28;20484;-70
2024/04/06 09:37:11;;;;;;;8.13;6.60;;;17.20;99.90;;;;;;5008506;28;20472;-72
2024/04/06 09:39:39;;;;;;;8.13;7.33;;;17.30;99.90;;;;;;5005803;28;20467;-74
2024/04/06 09:42:08;;;;;;;8.17;7.40;;;17.30;99.90;;;;;;4998496;28;20472;-71
2024/04/06 09:44:37;;;;;;;8.53;7.63;;;17.40;99.90;;;;;;4999115;28;20549;-72
2024/04/06 09:47:05;;;;;;;8.37;7.53;;;17.40;99.90;;;;;;4999271;28;20967;-72
2024/04/06 09:49:33;;;;;;;9.87;7.87;;;17.40;99.90;;;;;;5002475;28;20892;-71
2024/04/06 09:51:59;;;;;;;7.97;6.73;;;17.50;99.90;;;;;;4998526;28;20957;-71
2024/04/06 09:54:27;;;;;;;11.53;8.23;;;17.50;99.90;;;;;;5004522;28;20488;-73
2024/04/06 09:56:53;;;;;;;7.37;6.60;;;17.60;99.90;;;;;;5010708;28;20475;-74
2024/04/06 09:59:21;;;;;;;7.70;7.00;;;17.70;99.90;;;;;;5005646;28;21468;-74
2024/04/06 10:01:49;;;;;;;7.77;6.97;;;17.80;99.90;;;;;;4993324;28;20499;-71
2024/04/06 10:04:35;;;;;;;7.07;6.47;;;17.90;99.90;;;;;;5006589;28;20486;-71
2024/04/06 10:07:03;;;;;;;6.90;6.20;;;17.90;99.90;;;;;;4994322;28;20517;-69
2024/04/06 10:09:31;;;;;;;7.37;6.67;;;17.90;99.90;;;;;;4984027;28;20857;-70
2024/04/06 10:11:58;;;;;;;8.07;5.83;;;17.90;99.90;;;;;;4989098;28;20475;-71
2024/04/06 10:14:26;;;;;;;7.10;6.50;;;18.00;99.90;;;;;;4987798;28;20530;-69
2024/04/06 10:17:05;;;;;;;8.00;7.20;;;18.00;99.90;;;;;;4995390;28;21115;-69
2024/04/06 10:19:32;;;;;;;6.70;6.10;;;18.00;99.90;;;;;;4991564;28;20474;-70
2024/04/06 10:22:03;;;;;;;6.50;5.70;;;18.20;99.90;;;;;;4996585;28;20554;-67
2024/04/06 10:24:30;;;;;;;6.63;6.03;;;18.20;99.90;;;;;;5008689;28;20910;-67
2024/04/06 10:26:57;;;;;;;6.30;5.70;;;18.30;99.90;;;;;;5002292;28;20472;-65
2024/04/06 10:29:24;;;;;;;7.53;6.23;;;18.40;99.90;;;;;;5007956;28;20494;-65
2024/04/06 10:31:50;;;;;;;6.57;5.93;;;18.50;99.90;;;;;;5014582;28;20487;-65
2024/04/06 10:34:19;;;;;;;7.50;5.63;;;18.50;99.90;;;;;;4999823;28;20494;-65
2024/04/06 10:36:46;;;;;;;6.07;5.47;;;18.60;99.90;;;;;;5012316;28;20471;-65
2024/04/06 10:39:13;;;;;;;5.80;5.30;;;18.60;99.90;;;;;;4996444;28;20953;-64
2024/04/06 10:41:41;;;;;;;6.43;5.83;;;18.60;99.90;;;;;;5006178;28;20479;-64
2024/04/06 10:44:08;;;;;;;6.67;6.03;;;18.60;99.90;;;;;;5010552;28;20487;-65
2024/04/06 10:46:35;;;;;;;6.33;5.77;;;18.60;99.90;;;;;;5002034;28;20467;-65
2024/04/06 10:49:05;;;;;;;5.80;5.23;;;18.60;99.90;;;;;;5000623;28;20850;-66
2024/04/06 10:51:32;;;;;;;6.50;5.27;;;18.70;99.90;;;;;;5005144;28;21019;-67
2024/04/06 10:53:59;;;;;;;6.50;5.90;;;18.80;99.90;;;;;;5007487;28;20495;-66
2024/04/06 10:56:26;;;;;;;6.30;5.70;;;18.90;99.90;;;;;;5006452;28;20479;-66
2024/04/06 10:58:54;;;;;;;4.90;4.43;;;19.10;99.90;;;;;;5003561;28;20538;-66
2024/04/06 11:01:23;;;;;;;5.30;4.90;;;19.30;99.90;;;;;;5006314;28;21036;-65
2024/04/06 11:03:52;;;;;;;5.63;5.13;;;19.40;99.90;;;;;;5007885;28;20548;-67
2024/04/06 11:06:18;;;;;;;4.77;4.37;;;19.50;99.90;;;;;;5012893;28;20974;-66
2024/04/06 11:08:47;;;;;;;4.57;4.17;;;19.60;99.90;;;;;;5000771;28;20530;-67
2024/04/06 11:11:13;;;;;;;4.57;4.17;;;19.70;99.90;;;;;;4999521;28;21104;-65
2024/04/06 11:13:40;;;;;;;4.53;4.13;;;19.80;99.90;;;;;;5000565;28;20637;-66
2024/04/06 11:16:09;;;;;;;4.23;3.90;;;19.90;99.90;;;;;;5006105;28;20550;-67
2024/04/06 11:18:40;;;;;;;3.73;3.40;;;20.00;99.90;;;;;;4998633;28;20491;-64
2024/04/06 11:21:09;;;;;;;3.57;3.37;;;20.10;99.90;;;;;;5004362;28;20487;-65
2024/04/06 11:23:37;;;;;;;3.60;3.30;;;20.30;99.90;;;;;;5005096;28;21223;-64
2024/04/06 11:26:05;;;;;;;4.10;3.53;;;20.50;99.90;;;;;;5015700;28;20474;-65
2024/04/06 11:28:32;;;;;;;3.50;3.20;;;20.70;99.90;;;;;;5004694;28;20471;-62
2024/04/06 11:30:59;;;;;;;5.00;3.60;;;20.80;99.90;;;;;;5007240;28;20503;-65
2024/04/06 11:33:27;;;;;;;3.27;2.97;;;20.90;99.90;;;;;;5016626;28;20526;-65
2024/04/06 11:35:53;;;;;;;2.83;2.63;;;20.90;99.90;;;;;;5009751;28;20471;-67
2024/04/06 11:38:20;;;;;;;3.10;2.80;;;20.80;99.90;;;;;;5012687;28;20466;-67
2024/04/06 11:40:47;;;;;;;3.13;2.83;;;20.80;99.90;;;;;;5005332;28;21089;-66
2024/04/06 11:43:16;;;;;;;2.50;2.30;;;20.80;99.90;;;;;;5009068;28;20464;-66
2024/04/06 11:45:42;;;;;;;2.83;2.40;;;20.70;99.90;;;;;;5011158;28;20471;-68
2024/04/06 11:48:10;;;;;;;2.77;2.30;;;20.60;99.90;;;;;;4991136;28;20481;-68
2024/04/06 11:50:36;;;;;;;3.63;3.27;;;20.60;99.90;;;;;;5010062;28;20502;-67
2024/04/06 11:53:03;;;;;;;2.67;2.37;;;20.60;99.90;;;;;;5011593;28;20484;-67
2024/04/06 11:55:30;;;;;;;2.53;2.33;;;20.60;99.90;;;;;;5010583;28;20557;-67
2024/04/06 11:57:57;;;;;;;2.37;2.17;;;20.70;99.90;;;;;;5002915;28;20783;-68
2024/04/06 12:00:25;;;;;;;3.83;2.27;;;20.70;99.90;;;;;;4999054;28;20974;-68
2024/04/06 12:02:52;;;;;;;3.93;2.30;;;20.80;99.90;;;;;;5002461;28;20476;-67
2024/04/06 12:05:18;;;;;;;2.70;1.70;;;20.80;99.90;;;;;;5005032;28;20488;-68
2024/04/06 12:07:45;;;;;;;2.10;1.90;;;20.90;99.90;;;;;;5000355;28;20926;-68
2024/04/06 12:10:11;;;;;;;2.60;2.00;;;21.00;99.90;;;;;;5008942;28;20471;-68
2024/04/06 12:12:38;;;;;;;1.90;1.80;;;21.10;99.90;;;;;;5006279;28;20523;-68
2024/04/06 12:15:05;;;;;;;2.20;2.00;;;21.20;99.90;;;;;;5000267;28;20999;-68
2024/04/06 12:17:33;;;;;;;3.07;2.00;;;21.40;99.90;;;;;;4994147;28;20541;-65
2024/04/06 12:19:59;;;;;;;3.63;2.00;;;21.40;99.90;;;;;;4997219;28;21274;-66
2024/04/06 12:22:27;;;;;;;1.70;1.60;;;21.50;99.90;;;;;;5008146;28;20476;-66
2024/04/06 12:24:53;;;;;;;1.83;1.50;;;21.50;99.90;;;;;;5005160;28;20499;-66
2024/04/06 12:27:20;;;;;;;3.47;2.00;;;21.50;99.90;;;;;;4996737;28;20460;-67
2024/04/06 12:29:47;;;;;;;2.53;2.30;;;21.60;99.90;;;;;;5005663;28;20604;-66
2024/04/06 12:32:14;;;;;;;3.47;1.87;;;21.70;99.90;;;;;;5002874;28;20463;-67
2024/04/06 12:34:42;;;;;;;2.20;2.00;;;21.70;99.90;;;;;;5001568;28;20868;-63
2024/04/06 12:37:10;;;;;;;1.60;1.50;;;21.80;99.90;;;;;;4996358;28;21282;-63
2024/04/06 12:39:36;;;;;;;1.53;1.43;;;21.80;99.90;;;;;;4995716;28;20472;-65
2024/04/06 12:42:05;;;;;;;2.13;1.53;;;21.70;99.90;;;;;;4992091;28;20471;-63
2024/04/06 12:44:32;;;;;;;4.57;1.77;;;21.70;99.90;;;;;;5011119;28;20495;-63